Time;durP1;ratioP1;P1;durP2;ratioP2;P2;SDS_P1;SDS_P2;PMS_P1;PMS_P2;Temp;Humidity;BMP_temperature;BMP_pressure;BME280_temperature;BME280_humidity;BME280_pressure;Samples;Min_cycle;Max_cycle;Signal;HPM_P1;HPM_P2
2022/10/16 00:01:11;;;;;;;2.83;2.50;;;14.70;99.90;;;;;;5030254;28;20425;-37
2022/10/16 00:03:38;;;;;;;2.50;2.30;;;14.60;99.90;;;;;;5029346;28;20433;-37
2022/10/16 00:06:05;;;;;;;3.67;2.37;;;14.60;99.90;;;;;;5029935;28;20486;-36
2022/10/16 00:08:31;;;;;;;3.50;2.47;;;14.60;99.90;;;;;;5030243;28;20508;-37
2022/10/16 00:11:03;;;;;;;4.37;2.20;;;14.60;99.90;;;;;;5028734;28;20425;-36
2022/10/16 00:13:29;;;;;;;2.67;2.40;;;14.60;99.90;;;;;;5029051;28;20432;-36
2022/10/16 00:15:56;;;;;;;2.67;2.20;;;14.60;99.90;;;;;;5029477;28;20487;-36
2022/10/16 00:18:21;;;;;;;3.60;2.70;;;14.50;99.90;;;;;;5029679;28;20432;-37
2022/10/16 00:20:47;;;;;;;3.33;2.13;;;14.50;99.90;;;;;;5030027;28;20433;-37
2022/10/16 00:23:13;;;;;;;2.30;2.10;;;14.50;99.90;;;;;;5029520;28;20214;-37
2022/10/16 00:25:38;;;;;;;2.97;1.93;;;14.50;99.90;;;;;;5029641;28;20364;-37
2022/10/16 00:28:04;;;;;;;4.57;2.40;;;14.50;99.90;;;;;;5030115;28;20195;-36
2022/10/16 00:30:30;;;;;;;4.73;2.50;;;14.40;99.90;;;;;;5029987;28;20217;-37
2022/10/16 00:32:55;;;;;;;2.77;2.23;;;14.40;99.90;;;;;;5029404;28;20598;-36
2022/10/16 00:35:21;;;;;;;2.83;2.50;;;14.40;99.90;;;;;;5041679;28;20193;-37
2022/10/16 00:37:47;;;;;;;4.50;2.63;;;14.40;99.90;;;;;;5029797;28;20873;-37
2022/10/16 00:40:12;;;;;;;2.67;2.10;;;14.40;99.90;;;;;;5033840;28;20711;-36
2022/10/16 00:42:38;;;;;;;3.90;2.10;;;14.50;99.90;;;;;;5028810;28;20243;-37
2022/10/16 00:45:04;;;;;;;2.87;2.57;;;14.50;99.90;;;;;;5027147;28;20489;-37
2022/10/16 00:47:44;;;;;;;2.10;1.90;;;14.50;99.90;;;;;;5029481;28;20190;-36
2022/10/16 00:50:10;;;;;;;2.23;1.80;;;14.60;99.90;;;;;;5029319;28;20892;-37
2022/10/16 00:52:39;;;;;;;2.17;1.83;;;14.60;99.90;;;;;;5028683;28;20505;-37
2022/10/16 00:55:06;;;;;;;3.93;2.27;;;14.70;99.90;;;;;;5026855;28;20194;-37
2022/10/16 00:57:32;;;;;;;4.13;2.20;;;14.70;99.90;;;;;;5027797;28;20443;-36
2022/10/16 00:59:58;;;;;;;4.70;2.00;;;14.70;99.90;;;;;;5029389;28;20421;-36
2022/10/16 01:02:24;;;;;;;2.10;1.90;;;14.60;99.90;;;;;;5028103;28;20500;-38
2022/10/16 01:04:52;;;;;;;2.90;2.03;;;14.60;99.90;;;;;;5027198;28;20441;-38
2022/10/16 01:07:39;;;;;;;2.27;2.07;;;14.60;99.90;;;;;;5029316;28;20237;-37
2022/10/16 01:10:23;;;;;;;2.90;1.87;;;14.60;99.90;;;;;;5029141;28;20891;-36
2022/10/16 01:13:07;;;;;;;2.43;1.73;;;14.60;99.90;;;;;;5027993;28;20425;-37
2022/10/16 01:15:51;;;;;;;2.00;1.70;;;14.70;99.90;;;;;;5028372;28;20764;-36
2022/10/16 01:18:37;;;;;;;4.60;2.40;;;14.70;99.90;;;;;;5026135;28;20417;-36
2022/10/16 01:21:08;;;;;;;2.50;2.10;;;14.70;99.90;;;;;;5028401;28;21089;-36
2022/10/16 01:24:08;;;;;;;4.27;2.60;;;14.70;99.90;;;;;;5028241;28;20453;-36
2022/10/16 01:26:42;;;;;;;3.10;2.40;;;14.60;99.90;;;;;;5028107;28;20995;-36
2022/10/16 01:29:43;;;;;;;3.00;2.30;;;14.60;99.90;;;;;;5020619;28;20412;-36
2022/10/16 01:32:29;;;;;;;1.77;1.67;;;14.50;99.90;;;;;;5023837;28;20437;-36
2022/10/16 01:35:09;;;;;;;2.17;1.97;;;14.50;99.90;;;;;;5030977;28;20569;-36
2022/10/16 01:37:59;;;;;;;2.40;1.93;;;14.50;99.90;;;;;;5013886;28;20417;-36
2022/10/16 01:40:27;;;;;;;3.23;2.57;;;14.50;99.90;;;;;;5027544;28;20417;-36
2022/10/16 01:42:57;;;;;;;3.93;2.07;;;14.50;99.90;;;;;;5027158;28;20498;-36
2022/10/16 01:45:22;;;;;;;3.00;2.03;;;14.50;99.90;;;;;;5027569;28;20872;-36
2022/10/16 01:47:51;;;;;;;2.53;2.33;;;14.50;99.90;;;;;;5028000;28;20436;-36
2022/10/16 01:50:19;;;;;;;4.27;2.10;;;14.60;99.90;;;;;;5028361;28;20178;-36
2022/10/16 01:52:48;;;;;;;2.20;2.00;;;14.50;99.90;;;;;;5026336;28;20944;-36
2022/10/16 01:55:28;;;;;;;1.83;1.73;;;14.50;99.90;;;;;;5027705;28;20516;-37
2022/10/16 01:57:56;;;;;;;4.77;1.97;;;14.50;99.90;;;;;;5028249;28;20667;-36
2022/10/16 02:00:23;;;;;;;3.90;2.27;;;14.60;99.90;;;;;;5028159;28;20461;-36
2022/10/16 02:02:53;;;;;;;2.07;1.90;;;14.60;99.90;;;;;;5009606;28;20456;-36
2022/10/16 02:05:44;;;;;;;1.80;1.70;;;14.60;99.90;;;;;;5028034;28;20547;-36
2022/10/16 02:08:10;;;;;;;2.90;1.57;;;14.60;99.90;;;;;;5028639;28;20812;-36
2022/10/16 02:10:37;;;;;;;2.67;2.00;;;14.60;99.90;;;;;;5028057;28;20437;-37
2022/10/16 02:13:11;;;;;;;3.50;2.30;;;14.60;99.90;;;;;;5027187;28;20445;-36
2022/10/16 02:15:37;;;;;;;2.27;1.80;;;14.60;99.90;;;;;;5030012;28;20850;-36
2022/10/16 02:18:05;;;;;;;2.10;1.60;;;14.60;99.90;;;;;;5032428;28;20439;-36
2022/10/16 02:20:36;;;;;;;2.40;1.77;;;14.60;99.90;;;;;;5032277;28;20561;-36
2022/10/16 02:23:03;;;;;;;1.80;1.70;;;14.70;99.90;;;;;;5031413;28;20413;-36
2022/10/16 02:25:37;;;;;;;2.27;1.70;;;14.70;99.90;;;;;;5010661;28;20914;-37
2022/10/16 02:28:13;;;;;;;2.00;1.60;;;14.70;99.90;;;;;;5031747;28;20938;-36
2022/10/16 02:31:01;;;;;;;2.90;2.00;;;14.60;99.90;;;;;;5031715;28;20420;-37
2022/10/16 02:33:30;;;;;;;2.30;1.60;;;14.60;99.90;;;;;;5031303;28;21002;-37
2022/10/16 02:35:57;;;;;;;1.73;1.57;;;14.60;99.90;;;;;;5044419;28;20428;-37
2022/10/16 02:38:24;;;;;;;2.00;1.80;;;14.50;99.90;;;;;;5032007;28;21105;-36
2022/10/16 02:40:50;;;;;;;2.70;2.07;;;14.50;99.90;;;;;;5031548;28;20629;-36
2022/10/16 02:43:16;;;;;;;2.33;1.70;;;14.50;99.90;;;;;;5031242;28;20425;-37
2022/10/16 02:45:42;;;;;;;1.80;1.50;;;14.40;99.90;;;;;;5031760;28;20531;-37
2022/10/16 02:48:08;;;;;;;2.40;2.03;;;14.50;99.90;;;;;;5031682;28;20478;-36
2022/10/16 02:50:34;;;;;;;3.30;1.80;;;14.40;99.90;;;;;;5030129;28;20668;-37
2022/10/16 02:53:00;;;;;;;1.30;1.20;;;14.50;99.90;;;;;;5030818;28;20428;-37
2022/10/16 02:55:27;;;;;;;2.60;1.80;;;14.50;99.90;;;;;;5029645;28;20187;-37
2022/10/16 02:57:53;;;;;;;1.70;1.43;;;14.40;99.90;;;;;;5031450;28;20439;-36
2022/10/16 03:00:19;;;;;;;1.50;1.40;;;14.50;99.90;;;;;;5031450;28;20421;-37
2022/10/16 03:02:45;;;;;;;2.10;1.43;;;14.40;99.90;;;;;;5030525;28;20413;-37
2022/10/16 03:05:11;;;;;;;1.50;1.40;;;14.50;99.90;;;;;;5030885;28;20469;-36
2022/10/16 03:07:36;;;;;;;3.50;1.70;;;14.50;99.90;;;;;;5031158;28;20186;-37
2022/10/16 03:10:02;;;;;;;2.30;1.83;;;14.50;99.90;;;;;;5031327;28;20197;-36
2022/10/16 03:12:29;;;;;;;1.80;1.33;;;14.50;99.90;;;;;;5030922;28;20186;-37
2022/10/16 03:14:56;;;;;;;1.83;1.50;;;14.50;99.90;;;;;;5030780;28;20182;-37
2022/10/16 03:17:22;;;;;;;2.13;1.50;;;14.50;99.90;;;;;;5031387;28;20433;-37
2022/10/16 03:19:48;;;;;;;1.33;1.23;;;14.60;99.90;;;;;;5030757;28;20413;-37
2022/10/16 03:22:14;;;;;;;1.47;1.37;;;14.60;99.90;;;;;;5031496;28;20432;-37
2022/10/16 03:24:39;;;;;;;1.93;1.30;;;14.60;99.90;;;;;;5030310;28;20240;-36
2022/10/16 03:27:05;;;;;;;4.80;1.77;;;14.70;99.90;;;;;;5030525;28;20210;-37
2022/10/16 03:29:32;;;;;;;2.17;1.20;;;14.60;99.90;;;;;;5030847;28;20183;-37
2022/10/16 03:31:58;;;;;;;2.70;1.40;;;14.70;99.90;;;;;;5031024;28;20195;-37
2022/10/16 03:34:24;;;;;;;3.10;1.30;;;14.60;99.90;;;;;;5029745;28;20573;-36
2022/10/16 03:36:50;;;;;;;1.40;1.30;;;14.60;99.90;;;;;;5029420;28;20429;-37
2022/10/16 03:39:15;;;;;;;1.33;1.23;;;14.50;99.90;;;;;;5030778;28;20236;-37
2022/10/16 03:41:41;;;;;;;1.93;1.20;;;14.50;99.90;;;;;;5030734;28;20186;-37
2022/10/16 03:44:07;;;;;;;1.03;0.93;;;14.50;99.90;;;;;;5030197;28;20260;-36
2022/10/16 03:46:32;;;;;;;1.87;1.40;;;14.50;99.90;;;;;;5030605;28;20264;-38
2022/10/16 03:48:58;;;;;;;2.03;1.30;;;14.50;99.90;;;;;;5030277;28;20237;-37
2022/10/16 03:51:23;;;;;;;3.43;1.43;;;14.50;99.90;;;;;;5030421;28;20434;-37
2022/10/16 03:53:49;;;;;;;1.30;1.20;;;14.60;99.90;;;;;;5029798;28;20750;-37
2022/10/16 03:56:15;;;;;;;2.07;1.50;;;14.70;99.90;;;;;;5029170;28;20194;-36
2022/10/16 03:58:41;;;;;;;2.50;1.50;;;14.70;99.90;;;;;;5030674;28;20252;-36
2022/10/16 04:01:07;;;;;;;1.13;1.03;;;14.60;99.90;;;;;;5030120;28;20187;-37
2022/10/16 04:03:32;;;;;;;1.70;1.23;;;14.60;99.90;;;;;;5029279;28;20456;-37
2022/10/16 04:05:58;;;;;;;1.40;1.30;;;14.60;99.90;;;;;;5029829;28;20465;-36
2022/10/16 04:08:24;;;;;;;1.17;0.90;;;14.60;99.90;;;;;;5030217;28;20217;-37
2022/10/16 04:10:50;;;;;;;1.67;1.30;;;14.60;99.90;;;;;;5030021;28;20198;-37
2022/10/16 04:13:16;;;;;;;2.83;1.10;;;14.60;99.90;;;;;;5029432;28;20182;-36
2022/10/16 04:15:41;;;;;;;1.33;1.23;;;14.60;99.90;;;;;;5029908;28;20570;-36
2022/10/16 04:18:07;;;;;;;2.10;1.10;;;14.60;99.90;;;;;;5029939;28;20440;-36
2022/10/16 04:20:34;;;;;;;1.10;1.00;;;14.60;99.90;;;;;;5030230;28;20197;-37
2022/10/16 04:22:59;;;;;;;2.63;1.30;;;14.50;99.90;;;;;;5029021;28;20193;-37
2022/10/16 04:25:25;;;;;;;1.00;0.93;;;14.50;99.90;;;;;;5029808;28;20461;-36
2022/10/16 04:27:53;;;;;;;1.40;1.13;;;14.50;99.90;;;;;;5029471;28;20317;-37
2022/10/16 04:30:19;;;;;;;1.10;1.00;;;14.40;99.90;;;;;;5029867;28;20205;-36
2022/10/16 04:32:49;;;;;;;1.40;1.30;;;14.40;99.90;;;;;;5028922;28;20429;-37
2022/10/16 04:35:14;;;;;;;4.10;1.30;;;14.40;99.90;;;;;;5029547;28;20819;-36
2022/10/16 04:37:40;;;;;;;2.23;1.60;;;14.30;99.90;;;;;;5027391;28;20425;-37
2022/10/16 04:40:06;;;;;;;2.03;1.40;;;14.30;99.90;;;;;;5029542;28;20487;-36
2022/10/16 04:42:32;;;;;;;1.40;1.00;;;14.30;99.90;;;;;;5029461;28;20194;-36
2022/10/16 04:44:57;;;;;;;1.37;1.27;;;14.20;99.90;;;;;;5028879;28;20479;-36
2022/10/16 04:47:23;;;;;;;1.73;1.20;;;14.20;99.90;;;;;;5029250;28;20284;-37
2022/10/16 04:49:48;;;;;;;1.43;1.33;;;14.30;99.90;;;;;;5029528;28;20183;-37
2022/10/16 04:52:14;;;;;;;2.70;1.80;;;14.30;99.90;;;;;;5029349;28;20186;-37
2022/10/16 04:54:40;;;;;;;2.27;1.03;;;14.40;99.90;;;;;;5027078;28;20226;-36
2022/10/16 04:57:06;;;;;;;1.23;1.13;;;14.40;99.90;;;;;;5029171;28;20714;-36
2022/10/16 04:59:31;;;;;;;3.53;1.00;;;14.40;99.90;;;;;;5028980;28;20187;-36
2022/10/16 05:01:57;;;;;;;1.07;0.97;;;14.40;99.90;;;;;;5028762;28;20205;-37
2022/10/16 05:04:23;;;;;;;1.57;1.23;;;14.30;99.90;;;;;;5028362;28;20260;-37
2022/10/16 05:06:49;;;;;;;2.47;1.50;;;14.30;99.90;;;;;;5028169;28;20217;-36
2022/10/16 05:09:15;;;;;;;2.73;1.30;;;14.30;99.90;;;;;;5028910;28;20869;-36
2022/10/16 05:11:40;;;;;;;2.33;1.60;;;14.30;99.90;;;;;;5029179;28;20443;-37
2022/10/16 05:14:06;;;;;;;1.53;1.43;;;14.30;99.90;;;;;;5028290;28;20626;-36
2022/10/16 05:16:31;;;;;;;3.53;1.30;;;14.30;99.90;;;;;;5028751;28;20273;-37
2022/10/16 05:18:57;;;;;;;1.13;1.03;;;14.30;99.90;;;;;;5029075;28;20277;-37
2022/10/16 05:21:23;;;;;;;1.20;1.10;;;14.20;99.90;;;;;;5027537;28;20190;-36
2022/10/16 05:23:48;;;;;;;1.27;1.17;;;14.30;99.90;;;;;;5028248;28;20199;-36
2022/10/16 05:26:14;;;;;;;1.40;1.30;;;14.20;99.90;;;;;;5027273;28;20225;-37
2022/10/16 05:28:40;;;;;;;3.63;1.33;;;14.30;99.90;;;;;;5028776;28;20182;-37
2022/10/16 05:31:07;;;;;;;1.40;1.30;;;14.30;99.90;;;;;;5028295;28;20179;-37
2022/10/16 05:33:33;;;;;;;1.20;1.10;;;14.40;99.90;;;;;;5028030;28;20502;-36
2022/10/16 05:36:07;;;;;;;2.37;1.73;;;14.30;99.90;;;;;;5041795;28;20436;-37
2022/10/16 05:38:34;;;;;;;1.40;1.20;;;14.30;99.90;;;;;;5028658;28;20436;-37
2022/10/16 05:40:59;;;;;;;1.60;1.50;;;14.40;99.90;;;;;;5028466;28;20425;-37
2022/10/16 05:43:27;;;;;;;1.83;1.30;;;14.40;99.90;;;;;;5027540;28;20789;-37
2022/10/16 05:46:04;;;;;;;1.27;1.17;;;14.40;99.90;;;;;;5028354;28;20221;-36
2022/10/16 05:48:30;;;;;;;1.60;1.23;;;14.40;99.90;;;;;;5028603;28;20409;-37
2022/10/16 05:51:01;;;;;;;3.87;1.13;;;14.40;99.90;;;;;;5028458;28;20475;-36
2022/10/16 05:53:28;;;;;;;1.50;1.40;;;14.40;99.90;;;;;;5027879;28;20413;-36
2022/10/16 05:55:55;;;;;;;1.77;1.60;;;14.40;99.90;;;;;;5027102;28;20598;-37
2022/10/16 05:58:22;;;;;;;2.03;1.43;;;14.40;99.90;;;;;;5028555;28;20831;-37
2022/10/16 06:01:06;;;;;;;3.60;1.33;;;14.40;99.90;;;;;;5028364;28;20504;-36
2022/10/16 06:03:33;;;;;;;2.00;1.50;;;14.40;99.90;;;;;;5027759;28;20516;-37
2022/10/16 06:05:58;;;;;;;1.90;1.60;;;14.40;99.90;;;;;;5028182;28;20491;-36
2022/10/16 06:08:24;;;;;;;3.43;1.60;;;14.40;99.90;;;;;;5027831;28;20433;-37
2022/10/16 06:11:01;;;;;;;1.80;1.50;;;14.40;99.90;;;;;;5019712;28;20357;-36
2022/10/16 06:13:27;;;;;;;2.23;1.50;;;14.40;99.90;;;;;;5027159;28;20202;-36
2022/10/16 06:15:53;;;;;;;1.60;1.50;;;14.40;99.90;;;;;;5041085;28;20913;-37
2022/10/16 06:18:18;;;;;;;1.50;1.40;;;14.40;99.90;;;;;;5045520;28;20186;-36
2022/10/16 06:20:44;;;;;;;2.60;1.40;;;14.40;99.90;;;;;;5028000;28;20208;-36
2022/10/16 06:23:09;;;;;;;1.20;1.10;;;14.40;99.90;;;;;;5027229;28;20545;-36
2022/10/16 06:25:35;;;;;;;3.20;1.77;;;14.50;99.90;;;;;;5041891;28;20221;-37
2022/10/16 06:28:01;;;;;;;2.30;2.00;;;14.50;99.90;;;;;;5048096;28;20197;-37
2022/10/16 06:30:26;;;;;;;2.30;1.50;;;14.50;99.90;;;;;;5047932;28;20712;-36
2022/10/16 06:32:52;;;;;;;2.60;1.30;;;14.50;99.90;;;;;;5038700;28;20182;-36
2022/10/16 06:35:17;;;;;;;1.73;1.63;;;14.50;99.90;;;;;;5027639;28;20247;-36
2022/10/16 06:37:43;;;;;;;3.30;1.57;;;14.50;99.90;;;;;;5027081;28;20575;-37
2022/10/16 06:40:09;;;;;;;2.37;1.60;;;14.50;99.90;;;;;;5025843;28;20182;-36
2022/10/16 06:42:34;;;;;;;1.53;1.43;;;14.50;99.90;;;;;;5028806;28;20510;-37
2022/10/16 06:45:01;;;;;;;3.30;1.60;;;14.50;99.90;;;;;;5024512;28;20638;-36
2022/10/16 06:47:27;;;;;;;2.10;1.90;;;14.50;99.90;;;;;;5023033;28;20194;-36
2022/10/16 06:49:52;;;;;;;1.63;1.53;;;14.60;99.90;;;;;;5028050;28;20418;-36
2022/10/16 06:52:18;;;;;;;1.70;1.50;;;14.60;99.90;;;;;;5027102;28;20474;-36
2022/10/16 06:54:44;;;;;;;4.47;1.33;;;14.70;99.90;;;;;;5026182;28;20199;-36
2022/10/16 06:57:09;;;;;;;1.93;1.67;;;14.70;99.90;;;;;;5025342;28;20196;-36
2022/10/16 06:59:35;;;;;;;2.33;1.77;;;14.70;99.90;;;;;;5027509;28;20194;-36
2022/10/16 07:02:00;;;;;;;2.30;1.60;;;14.70;99.90;;;;;;5030118;28;20194;-36
2022/10/16 07:04:26;;;;;;;1.60;1.50;;;14.70;99.90;;;;;;5030476;28;20229;-37
2022/10/16 07:06:52;;;;;;;1.97;1.77;;;14.70;99.90;;;;;;5027626;28;20693;-37
2022/10/16 07:09:17;;;;;;;1.90;1.80;;;14.60;99.90;;;;;;5026495;28;20194;-37
2022/10/16 07:11:43;;;;;;;2.20;1.50;;;14.70;99.90;;;;;;5031251;28;20194;-36
2022/10/16 07:14:17;;;;;;;5.00;1.70;;;14.70;99.90;;;;;;5030487;28;20193;-37
2022/10/16 07:16:43;;;;;;;1.90;1.60;;;14.80;99.90;;;;;;5031130;28;20331;-36
2022/10/16 07:19:11;;;;;;;3.03;2.00;;;14.80;99.90;;;;;;5031084;28;20521;-36
2022/10/16 07:21:37;;;;;;;6.03;1.70;;;14.90;99.90;;;;;;5030759;28;20428;-36
2022/10/16 07:24:05;;;;;;;1.57;1.47;;;15.00;99.90;;;;;;5030540;28;20459;-37
2022/10/16 07:26:33;;;;;;;1.90;1.77;;;15.00;99.90;;;;;;5030799;28;20300;-37
2022/10/16 07:29:00;;;;;;;3.33;1.77;;;15.00;99.90;;;;;;5030845;28;20515;-37
2022/10/16 07:31:26;;;;;;;4.83;2.67;;;15.00;99.90;;;;;;5032734;28;20433;-36
2022/10/16 07:33:53;;;;;;;1.17;1.10;;;15.00;99.90;;;;;;5027814;28;20905;-37
2022/10/16 07:36:19;;;;;;;5.10;1.90;;;15.00;99.90;;;;;;5023698;28;20477;-37
2022/10/16 07:38:46;;;;;;;1.40;1.30;;;14.90;99.90;;;;;;5028995;28;20433;-37
2022/10/16 07:41:17;;;;;;;2.23;1.57;;;14.90;99.90;;;;;;5030584;28;20413;-37
2022/10/16 07:43:50;;;;;;;1.80;1.70;;;14.90;99.90;;;;;;5030368;28;20478;-37
2022/10/16 07:46:17;;;;;;;1.60;1.50;;;14.90;99.90;;;;;;5030302;28;20468;-36
2022/10/16 07:48:47;;;;;;;3.57;1.97;;;15.00;99.90;;;;;;5030221;28;20432;-37
2022/10/16 07:51:18;;;;;;;1.73;1.60;;;15.40;99.90;;;;;;5031094;28;20486;-37
2022/10/16 07:53:43;;;;;;;3.40;1.80;;;15.70;99.90;;;;;;5029286;28;20778;-37
2022/10/16 07:56:10;;;;;;;1.60;1.50;;;16.10;99.90;;;;;;5028199;28;20451;-37
2022/10/16 07:58:39;;;;;;;1.53;1.43;;;16.30;99.90;;;;;;5029827;28;20285;-37
2022/10/16 08:01:06;;;;;;;1.77;1.50;;;16.60;99.90;;;;;;5029469;28;20482;-37
2022/10/16 08:03:32;;;;;;;1.63;1.53;;;16.80;99.90;;;;;;5028656;28;20510;-37
2022/10/16 08:05:59;;;;;;;1.40;1.30;;;17.20;99.90;;;;;;5031549;28;20525;-37
2022/10/16 08:08:24;;;;;;;1.73;1.63;;;17.40;99.90;;;;;;5031066;28;20430;-38
2022/10/16 08:10:50;;;;;;;2.67;1.50;;;17.70;99.90;;;;;;5030308;28;20448;-37
2022/10/16 08:13:16;;;;;;;1.40;1.30;;;18.00;99.90;;;;;;5033460;28;20271;-38
2022/10/16 08:15:42;;;;;;;1.83;1.40;;;18.20;99.90;;;;;;5049709;28;20751;-37
2022/10/16 08:18:10;;;;;;;2.70;1.50;;;18.40;99.90;;;;;;5046929;28;20197;-37
2022/10/16 08:20:35;;;;;;;2.00;1.77;;;18.60;99.90;;;;;;5025424;28;20913;-37
2022/10/16 08:23:01;;;;;;;1.93;1.30;;;18.80;99.90;;;;;;5024951;28;20445;-36
2022/10/16 08:25:27;;;;;;;2.13;1.40;;;19.00;99.90;;;;;;5046264;28;20206;-36
2022/10/16 08:27:53;;;;;;;2.77;1.97;;;19.10;99.90;;;;;;5023315;28;20535;-37
2022/10/16 08:30:20;;;;;;;2.87;1.73;;;19.30;99.90;;;;;;5029207;28;20437;-38
2022/10/16 08:32:46;;;;;;;2.90;1.67;;;19.20;99.90;;;;;;5035352;28;20186;-36
2022/10/16 08:35:12;;;;;;;1.60;1.20;;;19.20;99.90;;;;;;5049179;28;20442;-37
2022/10/16 08:37:39;;;;;;;2.03;1.37;;;19.20;99.90;;;;;;5029683;28;20654;-37
2022/10/16 08:40:06;;;;;;;1.87;1.40;;;19.20;99.90;;;;;;5028092;28;20491;-37
2022/10/16 08:42:52;;;;;;;1.47;1.37;;;19.50;99.90;;;;;;5026858;28;20429;-38
2022/10/16 08:45:26;;;;;;;1.43;1.20;;;19.40;99.90;;;;;;5027243;28;20461;-37
2022/10/16 08:47:59;;;;;;;3.10;1.10;;;19.50;99.90;;;;;;5029591;28;20428;-38
2022/10/16 08:50:27;;;;;;;2.57;1.40;;;19.60;99.90;;;;;;5029210;28;20421;-37
2022/10/16 08:52:54;;;;;;;2.90;1.30;;;19.70;99.90;;;;;;5028744;28;20429;-37
2022/10/16 08:55:26;;;;;;;3.67;1.20;;;19.90;99.90;;;;;;5026812;28;20456;-37
2022/10/16 08:57:52;;;;;;;2.33;1.00;;;19.90;99.90;;;;;;5029384;28;20503;-37
2022/10/16 09:00:18;;;;;;;52.20;5.13;;;19.90;99.90;;;;;;5029144;28;20956;-36
2022/10/16 09:02:58;;;;;;;33.33;5.00;;;19.60;99.90;;;;;;5027194;28;20233;-38
2022/10/16 09:05:57;;;;;;;40.00;5.13;;;19.80;99.90;;;;;;5028717;28;20562;-39
2022/10/16 09:08:29;;;;;;;2.20;1.40;;;19.90;99.90;;;;;;5029176;28;20796;-35
2022/10/16 09:11:10;;;;;;;3.90;1.30;;;20.00;99.90;;;;;;5028984;28;20429;-36
2022/10/16 09:13:43;;;;;;;11.33;1.93;;;20.10;99.90;;;;;;5028178;28;20500;-37
2022/10/16 09:16:24;;;;;;;2.73;1.10;;;20.30;99.90;;;;;;5028948;28;20953;-34
2022/10/16 09:19:06;;;;;;;1.17;0.87;;;20.30;99.90;;;;;;5029013;28;20428;-35
2022/10/16 09:21:39;;;;;;;1.20;0.90;;;20.10;99.90;;;;;;5028868;28;20820;-36
2022/10/16 09:24:16;;;;;;;10.97;1.30;;;20.10;99.90;;;;;;5026844;28;20471;-35
2022/10/16 09:26:42;;;;;;;2.47;0.90;;;20.30;99.90;;;;;;5028623;28;20465;-36
2022/10/16 09:29:16;;;;;;;3.40;1.20;;;20.40;99.90;;;;;;5028669;28;20425;-35
2022/10/16 09:31:43;;;;;;;2.53;1.00;;;20.40;99.90;;;;;;5043915;28;20773;-36
2022/10/16 09:34:33;;;;;;;1.77;1.00;;;20.50;99.90;;;;;;5031988;28;20420;-35
2022/10/16 09:37:09;;;;;;;2.10;1.03;;;20.60;99.90;;;;;;5028589;28;20851;-36
2022/10/16 09:39:52;;;;;;;1.90;0.87;;;20.60;99.90;;;;;;5028520;28;21018;-35
2022/10/16 09:42:32;;;;;;;2.17;0.93;;;20.40;99.90;;;;;;5028426;28;20796;-35
2022/10/16 09:44:58;;;;;;;2.00;0.90;;;20.40;99.90;;;;;;5027359;28;20429;-35
2022/10/16 09:47:26;;;;;;;4.00;1.00;;;20.30;99.90;;;;;;5027322;28;20740;-36
2022/10/16 09:49:59;;;;;;;2.53;0.93;;;20.20;99.90;;;;;;5028364;28;20424;-35
2022/10/16 09:52:25;;;;;;;1.63;0.80;;;20.00;99.90;;;;;;5028255;28;20487;-35
2022/10/16 09:55:00;;;;;;;2.93;1.23;;;19.90;99.90;;;;;;5026964;28;20431;-35
2022/10/16 09:57:27;;;;;;;1.80;0.70;;;19.80;99.90;;;;;;5038017;28;20970;-35
2022/10/16 09:59:55;;;;;;;3.43;1.30;;;19.90;99.90;;;;;;5048121;28;20433;-36
2022/10/16 10:02:34;;;;;;;2.17;1.33;;;19.90;99.90;;;;;;5030641;28;20414;-36
2022/10/16 10:05:00;;;;;;;1.90;0.90;;;19.80;99.90;;;;;;5027458;28;20506;-36
2022/10/16 10:07:33;;;;;;;3.23;1.00;;;19.70;99.90;;;;;;5028240;28;20424;-36
2022/10/16 10:09:59;;;;;;;0.90;0.80;;;19.70;99.90;;;;;;5028118;28;20485;-35
2022/10/16 10:12:35;;;;;;;1.67;0.77;;;19.60;99.90;;;;;;5025171;28;20460;-36
2022/10/16 10:15:09;;;;;;;1.67;0.80;;;19.60;99.90;;;;;;5027773;28;20455;-36
2022/10/16 10:17:52;;;;;;;1.33;0.83;;;19.60;99.90;;;;;;5022831;28;20499;-36
2022/10/16 10:20:34;;;;;;;2.30;0.87;;;19.60;99.90;;;;;;5028055;28;20421;-37
2022/10/16 10:23:01;;;;;;;3.17;0.83;;;19.70;99.90;;;;;;5027508;28;20420;-36
2022/10/16 10:25:49;;;;;;;2.03;0.60;;;19.70;99.90;;;;;;5027855;28;20540;-35
2022/10/16 10:28:36;;;;;;;1.30;0.73;;;19.70;99.90;;;;;;5027871;28;20428;-36
2022/10/16 10:31:23;;;;;;;1.50;0.70;;;19.70;99.90;;;;;;5026990;28;20412;-36
2022/10/16 10:34:27;;;;;;;2.47;0.80;;;19.80;99.90;;;;;;5027593;28;20423;-35
2022/10/16 10:37:07;;;;;;;1.20;0.80;;;19.80;99.90;;;;;;5029174;28;20683;-36
2022/10/16 10:39:43;;;;;;;2.60;1.17;;;19.70;99.90;;;;;;5051619;28;20500;-35
2022/10/16 10:42:25;;;;;;;2.10;0.97;;;19.70;99.90;;;;;;5051852;28;20423;-36
2022/10/16 10:44:53;;;;;;;2.23;0.60;;;19.70;99.90;;;;;;5051288;28;20420;-36
2022/10/16 10:47:46;;;;;;;2.30;0.80;;;19.60;99.90;;;;;;5049083;28;20805;-36
2022/10/16 10:50:35;;;;;;;2.73;1.10;;;19.60;99.90;;;;;;5028686;28;20467;-36
2022/10/16 10:53:38;;;;;;;4.77;0.77;;;19.60;99.90;;;;;;5027387;28;20587;-35
2022/10/16 10:56:22;;;;;;;4.87;1.57;;;19.50;99.90;;;;;;5045545;28;20436;-36
2022/10/16 10:58:51;;;;;;;1.77;0.70;;;19.40;99.90;;;;;;5039499;28;20803;-36
2022/10/16 11:01:24;;;;;;;1.20;0.60;;;19.30;99.90;;;;;;5029125;28;21022;-36
2022/10/16 11:03:53;;;;;;;1.50;0.70;;;19.30;99.90;;;;;;5031092;28;20630;-35
2022/10/16 11:06:30;;;;;;;2.83;1.03;;;19.30;99.90;;;;;;5028912;28;20926;-35
2022/10/16 11:09:27;;;;;;;2.70;0.60;;;19.30;99.90;;;;;;5029917;28;20448;-36
2022/10/16 11:11:58;;;;;;;1.67;0.70;;;19.30;99.90;;;;;;5032637;28;21077;-36
2022/10/16 11:14:48;;;;;;;2.27;0.80;;;19.30;99.90;;;;;;5029695;28;20507;-36
2022/10/16 11:17:21;;;;;;;1.57;1.07;;;19.40;99.90;;;;;;5029256;28;20441;-36
2022/10/16 11:19:53;;;;;;;4.50;1.30;;;19.60;99.90;;;;;;5033326;28;20441;-36
2022/10/16 11:22:54;;;;;;;0.90;0.63;;;19.70;99.90;;;;;;5032967;28;20539;-36
2022/10/16 11:25:32;;;;;;;0.83;0.70;;;19.80;99.90;;;;;;5030308;28;20858;-36
2022/10/16 11:28:09;;;;;;;1.13;0.70;;;19.90;99.90;;;;;;5030887;28;20831;-37
2022/10/16 11:31:00;;;;;;;1.47;0.60;;;20.00;99.90;;;;;;5031061;28;20543;-36
2022/10/16 11:33:31;;;;;;;2.30;1.10;;;20.00;99.90;;;;;;5028042;28;20480;-36
2022/10/16 11:36:22;;;;;;;1.63;0.80;;;19.90;99.90;;;;;;5036562;28;20469;-36
2022/10/16 11:38:54;;;;;;;0.70;0.50;;;19.80;99.90;;;;;;5022137;28;20908;-36
2022/10/16 11:41:37;;;;;;;1.63;0.90;;;19.80;99.90;;;;;;5029033;28;20448;-36
2022/10/16 11:44:12;;;;;;;4.10;0.80;;;19.90;99.90;;;;;;5030206;28;20463;-37
2022/10/16 11:46:42;;;;;;;1.53;0.77;;;20.00;99.90;;;;;;5032359;28;20555;-37
2022/10/16 11:49:18;;;;;;;1.23;0.50;;;20.00;99.90;;;;;;5031874;28;20540;-35
2022/10/16 11:51:56;;;;;;;1.77;0.63;;;20.10;99.90;;;;;;5031050;28;20780;-36
2022/10/16 11:54:36;;;;;;;1.60;0.73;;;20.30;99.90;;;;;;5031013;28;21022;-36
2022/10/16 11:57:14;;;;;;;1.50;0.83;;;20.40;99.90;;;;;;5028770;28;20445;-36
2022/10/16 11:59:48;;;;;;;4.00;0.80;;;20.60;99.90;;;;;;5031388;28;20443;-37
2022/10/16 12:02:33;;;;;;;2.43;0.70;;;20.70;99.90;;;;;;5030865;28;20466;-35
2022/10/16 12:05:38;;;;;;;3.13;0.80;;;20.70;99.90;;;;;;5019260;28;20537;-36
2022/10/16 12:08:11;;;;;;;1.80;0.80;;;20.80;99.90;;;;;;5022766;28;20567;-36
2022/10/16 12:10:39;;;;;;;1.93;1.00;;;20.70;99.90;;;;;;5031281;28;20433;-36
2022/10/16 12:13:25;;;;;;;1.13;0.70;;;20.70;99.90;;;;;;5028551;28;20460;-35
2022/10/16 12:15:51;;;;;;;2.03;0.70;;;20.80;99.90;;;;;;5041853;28;20451;-36
2022/10/16 12:18:24;;;;;;;1.83;1.10;;;20.80;99.90;;;;;;5036796;28;20760;-36
2022/10/16 12:21:05;;;;;;;2.17;1.00;;;20.70;99.90;;;;;;5031629;28;20719;-36
2022/10/16 12:23:31;;;;;;;1.83;0.80;;;20.80;99.90;;;;;;5028889;28;20449;-36
2022/10/16 12:26:02;;;;;;;3.60;0.90;;;20.70;99.90;;;;;;5030979;28;20469;-36
2022/10/16 12:28:31;;;;;;;0.80;0.50;;;20.70;99.90;;;;;;5029855;28;20457;-37
2022/10/16 12:31:06;;;;;;;1.23;0.70;;;20.60;99.90;;;;;;5031620;28;20453;-36
2022/10/16 12:33:37;;;;;;;2.70;0.70;;;20.40;99.90;;;;;;5029316;28;20467;-36
2022/10/16 12:36:15;;;;;;;0.97;0.63;;;20.40;99.90;;;;;;5030040;28;20983;-36
2022/10/16 12:38:51;;;;;;;1.83;0.80;;;20.40;99.90;;;;;;5029252;28;20967;-36
2022/10/16 12:41:31;;;;;;;3.07;0.87;;;20.50;99.90;;;;;;5032289;28;20441;-35
2022/10/16 12:43:58;;;;;;;1.50;0.50;;;20.50;99.90;;;;;;5027872;28;20873;-36
2022/10/16 12:46:36;;;;;;;1.50;0.80;;;20.50;99.90;;;;;;5026883;28;20461;-36
2022/10/16 12:49:15;;;;;;;1.70;0.60;;;20.50;99.90;;;;;;5026351;28;20452;-36
2022/10/16 12:51:42;;;;;;;1.30;0.67;;;20.40;99.90;;;;;;5028137;28;20509;-36
2022/10/16 12:54:15;;;;;;;0.80;0.50;;;20.40;99.90;;;;;;5028225;28;20554;-36
2022/10/16 12:57:05;;;;;;;2.70;0.73;;;20.40;99.90;;;;;;5030111;28;20487;-36
2022/10/16 12:59:56;;;;;;;1.43;0.50;;;20.30;99.90;;;;;;5027570;28;20516;-36
2022/10/16 13:03:12;;;;;;;2.30;0.90;;;20.20;99.90;;;;;;5029697;28;20467;-36
2022/10/16 13:05:52;;;;;;;2.03;0.70;;;20.20;99.90;;;;;;5023503;28;20965;-36